Upstream stations:
Downstream station:
SHEF ID: WCOM7 Spring R A - Waco MO
STATION TYPE: Stream Gauge
Regulating: Stage = 19.00, Flow = 17743
PRECIP STAGE RIV-FLOW BAT-LOAD
in ft cfs volt
Ccp-Rev Ccp-Rev Ccp-Rev Ccp-Rev
(US/Central)
03/27 00:00 0.00 3.78 1400 12.83
03/27 01:00 0.00 3.74 1371 12.77
03/27 02:00 0.00 3.73 1363 12.77
03/27 03:00 0.00 3.76 1385 12.71
03/27 04:00 0.00 3.75 1378 12.71
03/27 05:00 0.00 3.70 1342 12.65
03/27 06:00 0.00 3.70 1342 12.65
03/27 07:00 0.00 3.68 1327 12.65
03/27 08:00 0.00 3.68 1327 12.65
03/27 09:00 0.00 3.66 1312 12.89
03/27 10:00 0.00 3.70 1342 13.36
03/27 11:00 0.00 3.63 1290 14.41
03/27 12:00 0.00 3.63 1290 14.35
03/27 13:00 0.00 3.60 1267 14.35
03/27 14:00 0.00 3.56 1237 14.41
03/27 15:00 0.00 3.60 1267 14.35
03/27 16:00 0.00 3.56 1237 14.30
03/27 17:00 0.00 3.56 1237 14.24
03/27 18:00 0.00 3.56 1237 14.06
03/27 19:00 0.00 3.50 1194 13.88
03/27 20:00 0.00 3.52 1208 13.53
03/27 21:00 0.00 3.51 1201 13.18
03/27 22:00 0.00 3.51 1201 13.00
03/27 23:00 0.00 3.51 1201 12.89